sensor_id;sensor_type;location;lat;lon;timestamp;temperature;humidity
7461;DHT22;6757;52.258;12.840;2023-08-20T00:01:04;23.90;99.90
7461;DHT22;6757;52.258;12.840;2023-08-20T00:03:32;24.00;99.90
7461;DHT22;6757;52.258;12.840;2023-08-20T00:06:00;23.90;99.90
7461;DHT22;6757;52.258;12.840;2023-08-20T00:08:28;23.90;99.90
7461;DHT22;6757;52.258;12.840;2023-08-20T00:10:54;23.90;99.90
7461;DHT22;6757;52.258;12.840;2023-08-20T00:13:21;23.90;99.90
7461;DHT22;6757;52.258;12.840;2023-08-20T00:15:48;23.90;99.90
7461;DHT22;6757;52.258;12.840;2023-08-20T00:18:18;23.90;99.90
7461;DHT22;6757;52.258;12.840;2023-08-20T00:20:45;23.80;99.90
7461;DHT22;6757;52.258;12.840;2023-08-20T00:23:13;23.80;99.90
7461;DHT22;6757;52.258;12.840;2023-08-20T00:25:41;23.80;99.90
7461;DHT22;6757;52.258;12.840;2023-08-20T00:28:08;23.80;99.90
7461;DHT22;6757;52.258;12.840;2023-08-20T00:30:35;23.80;99.90
7461;DHT22;6757;52.258;12.840;2023-08-20T00:33:02;23.80;99.90
7461;DHT22;6757;52.258;12.840;2023-08-20T00:35:31;23.80;99.90
7461;DHT22;6757;52.258;12.840;2023-08-20T00:37:58;23.80;99.90
7461;DHT22;6757;52.258;12.840;2023-08-20T00:40:25;23.70;99.90
7461;DHT22;6757;52.258;12.840;2023-08-20T00:42:52;23.70;99.90
7461;DHT22;6757;52.258;12.840;2023-08-20T00:45:18;23.70;99.90
7461;DHT22;6757;52.258;12.840;2023-08-20T00:47:46;23.70;99.90
7461;DHT22;6757;52.258;12.840;2023-08-20T00:50:13;23.70;99.90
7461;DHT22;6757;52.258;12.840;2023-08-20T00:52:41;23.60;99.90
7461;DHT22;6757;52.258;12.840;2023-08-20T00:55:10;23.60;99.90
7461;DHT22;6757;52.258;12.840;2023-08-20T00:57:39;23.50;99.90
7461;DHT22;6757;52.258;12.840;2023-08-20T01:00:08;23.50;99.90
7461;DHT22;6757;52.258;12.840;2023-08-20T01:02:37;23.50;99.90
7461;DHT22;6757;52.258;12.840;2023-08-20T01:05:06;23.50;99.90
7461;DHT22;6757;52.258;12.840;2023-08-20T01:07:43;23.50;99.90
7461;DHT22;6757;52.258;12.840;2023-08-20T01:10:19;23.50;99.90
7461;DHT22;6757;52.258;12.840;2023-08-20T01:12:51;23.50;99.90
7461;DHT22;6757;52.258;12.840;2023-08-20T01:15:19;23.40;99.90
7461;DHT22;6757;52.258;12.840;2023-08-20T01:17:46;23.40;99.90
7461;DHT22;6757;52.258;12.840;2023-08-20T01:20:13;23.40;99.90
7461;DHT22;6757;52.258;12.840;2023-08-20T01:26:21;23.40;99.90
7461;DHT22;6757;52.258;12.840;2023-08-20T01:28:54;23.40;99.90
7461;DHT22;6757;52.258;12.840;2023-08-20T01:31:22;23.40;99.90
7461;DHT22;6757;52.258;12.840;2023-08-20T01:33:51;23.30;99.90
7461;DHT22;6757;52.258;12.840;2023-08-20T01:36:19;23.80;99.90
7461;DHT22;6757;52.258;12.840;2023-08-20T01:38:45;23.30;99.90
7461;DHT22;6757;52.258;12.840;2023-08-20T01:41:12;23.40;99.90
7461;DHT22;6757;52.258;12.840;2023-08-20T01:43:39;23.30;99.90
7461;DHT22;6757;52.258;12.840;2023-08-20T01:46:08;23.20;99.90
7461;DHT22;6757;52.258;12.840;2023-08-20T01:48:35;23.20;99.90
7461;DHT22;6757;52.258;12.840;2023-08-20T01:51:02;23.20;99.90
7461;DHT22;6757;52.258;12.840;2023-08-20T01:53:29;23.10;99.90
7461;DHT22;6757;52.258;12.840;2023-08-20T01:55:56;23.10;99.90
7461;DHT22;6757;52.258;12.840;2023-08-20T01:58:23;23.10;99.90
7461;DHT22;6757;52.258;12.840;2023-08-20T02:00:50;23.00;99.90
7461;DHT22;6757;52.258;12.840;2023-08-20T02:03:19;23.00;99.90
7461;DHT22;6757;52.258;12.840;2023-08-20T02:05:46;23.00;99.90
7461;DHT22;6757;52.258;12.840;2023-08-20T02:08:13;23.00;99.90
7461;DHT22;6757;52.258;12.840;2023-08-20T02:10:40;22.90;99.90
7461;DHT22;6757;52.258;12.840;2023-08-20T02:13:07;22.90;99.90
7461;DHT22;6757;52.258;12.840;2023-08-20T02:15:34;22.90;99.90
7461;DHT22;6757;52.258;12.840;2023-08-20T02:18:01;22.90;99.90
7461;DHT22;6757;52.258;12.840;2023-08-20T02:20:29;22.80;99.90
7461;DHT22;6757;52.258;12.840;2023-08-20T02:22:56;22.80;99.90
7461;DHT22;6757;52.258;12.840;2023-08-20T02:25:23;22.80;99.90
7461;DHT22;6757;52.258;12.840;2023-08-20T02:27:50;22.70;99.90
7461;DHT22;6757;52.258;12.840;2023-08-20T02:30:17;22.80;99.90
7461;DHT22;6757;52.258;12.840;2023-08-20T02:32:44;22.70;99.90
7461;DHT22;6757;52.258;12.840;2023-08-20T02:35:11;22.60;99.90
7461;DHT22;6757;52.258;12.840;2023-08-20T02:37:40;22.60;99.90
7461;DHT22;6757;52.258;12.840;2023-08-20T02:40:08;22.60;99.90
7461;DHT22;6757;52.258;12.840;2023-08-20T02:42:37;22.60;99.90
7461;DHT22;6757;52.258;12.840;2023-08-20T02:45:04;22.50;99.90
7461;DHT22;6757;52.258;12.840;2023-08-20T02:47:32;22.50;99.90
7461;DHT22;6757;52.258;12.840;2023-08-20T02:49:59;22.50;99.90
7461;DHT22;6757;52.258;12.840;2023-08-20T02:52:26;22.50;99.90
7461;DHT22;6757;52.258;12.840;2023-08-20T02:54:54;22.50;99.90
7461;DHT22;6757;52.258;12.840;2023-08-20T02:57:21;22.40;99.90
7461;DHT22;6757;52.258;12.840;2023-08-20T02:59:48;22.40;99.90
7461;DHT22;6757;52.258;12.840;2023-08-20T03:02:15;22.40;99.90
7461;DHT22;6757;52.258;12.840;2023-08-20T03:04:42;22.30;99.90
7461;DHT22;6757;52.258;12.840;2023-08-20T03:07:09;22.30;99.90
7461;DHT22;6757;52.258;12.840;2023-08-20T03:09:36;22.30;99.90
7461;DHT22;6757;52.258;12.840;2023-08-20T03:12:05;22.20;99.90
7461;DHT22;6757;52.258;12.840;2023-08-20T03:14:32;22.20;99.90
7461;DHT22;6757;52.258;12.840;2023-08-20T03:16:59;22.20;99.90
7461;DHT22;6757;52.258;12.840;2023-08-20T03:19:26;22.10;99.90
7461;DHT22;6757;52.258;12.840;2023-08-20T03:21:52;22.10;99.90
7461;DHT22;6757;52.258;12.840;2023-08-20T03:24:19;22.10;99.90
7461;DHT22;6757;52.258;12.840;2023-08-20T03:26:46;22.00;99.90
7461;DHT22;6757;52.258;12.840;2023-08-20T03:29:15;22.10;99.90
7461;DHT22;6757;52.258;12.840;2023-08-20T03:31:41;22.00;99.90
7461;DHT22;6757;52.258;12.840;2023-08-20T03:34:08;22.00;99.90
7461;DHT22;6757;52.258;12.840;2023-08-20T03:36:36;21.90;99.90
7461;DHT22;6757;52.258;12.840;2023-08-20T03:39:03;21.90;99.90
7461;DHT22;6757;52.258;12.840;2023-08-20T03:41:30;21.90;99.90
7461;DHT22;6757;52.258;12.840;2023-08-20T03:43:57;21.80;99.90
7461;DHT22;6757;52.258;12.840;2023-08-20T03:46:25;21.80;99.90
7461;DHT22;6757;52.258;12.840;2023-08-20T03:48:52;21.80;99.90
7461;DHT22;6757;52.258;12.840;2023-08-20T03:51:19;21.80;99.90
7461;DHT22;6757;52.258;12.840;2023-08-20T03:53:46;21.70;99.90
7461;DHT22;6757;52.258;12.840;2023-08-20T03:56:13;21.70;99.90
7461;DHT22;6757;52.258;12.840;2023-08-20T03:58:40;21.70;99.90
7461;DHT22;6757;52.258;12.840;2023-08-20T04:01:06;22.20;99.90
7461;DHT22;6757;52.258;12.840;2023-08-20T04:03:35;21.70;99.90
7461;DHT22;6757;52.258;12.840;2023-08-20T04:06:02;21.60;99.90
7461;DHT22;6757;52.258;12.840;2023-08-20T04:08:29;21.60;99.90
7461;DHT22;6757;52.258;12.840;2023-08-20T04:10:56;21.60;99.90
7461;DHT22;6757;52.258;12.840;2023-08-20T04:13:23;21.50;99.90
7461;DHT22;6757;52.258;12.840;2023-08-20T04:15:50;21.50;99.90
7461;DHT22;6757;52.258;12.840;2023-08-20T04:18:17;21.50;99.90
7461;DHT22;6757;52.258;12.840;2023-08-20T04:20:46;21.50;99.90
7461;DHT22;6757;52.258;12.840;2023-08-20T04:23:13;21.50;99.90
7461;DHT22;6757;52.258;12.840;2023-08-20T04:25:40;21.40;99.90
7461;DHT22;6757;52.258;12.840;2023-08-20T04:28:07;21.40;99.90
7461;DHT22;6757;52.258;12.840;2023-08-20T04:30:35;21.40;99.90
7461;DHT22;6757;52.258;12.840;2023-08-20T04:33:02;21.40;99.90
7461;DHT22;6757;52.258;12.840;2023-08-20T04:35:29;21.40;99.90
7461;DHT22;6757;52.258;12.840;2023-08-20T04:37:58;21.30;99.90
7461;DHT22;6757;52.258;12.840;2023-08-20T04:40:25;21.30;99.90
7461;DHT22;6757;52.258;12.840;2023-08-20T04:42:52;21.30;99.90
7461;DHT22;6757;52.258;12.840;2023-08-20T04:45:19;21.30;99.90
7461;DHT22;6757;52.258;12.840;2023-08-20T04:47:46;21.30;99.90
7461;DHT22;6757;52.258;12.840;2023-08-20T04:50:13;21.30;99.90
7461;DHT22;6757;52.258;12.840;2023-08-20T04:52:40;21.40;99.90
7461;DHT22;6757;52.258;12.840;2023-08-20T04:55:09;21.30;99.90
7461;DHT22;6757;52.258;12.840;2023-08-20T04:57:36;21.30;99.90
7461;DHT22;6757;52.258;12.840;2023-08-20T05:00:03;21.30;99.90
7461;DHT22;6757;52.258;12.840;2023-08-20T05:02:32;21.30;99.90
7461;DHT22;6757;52.258;12.840;2023-08-20T05:04:59;21.40;99.90
7461;DHT22;6757;52.258;12.840;2023-08-20T05:07:26;21.40;99.90
7461;DHT22;6757;52.258;12.840;2023-08-20T05:09:52;21.30;99.90
7461;DHT22;6757;52.258;12.840;2023-08-20T05:12:21;21.40;99.90
7461;DHT22;6757;52.258;12.840;2023-08-20T05:14:48;21.40;99.90
7461;DHT22;6757;52.258;12.840;2023-08-20T05:17:15;21.40;99.90
7461;DHT22;6757;52.258;12.840;2023-08-20T05:19:41;21.40;99.90
7461;DHT22;6757;52.258;12.840;2023-08-20T05:22:08;21.50;99.90
7461;DHT22;6757;52.258;12.840;2023-08-20T05:24:37;21.50;99.90
7461;DHT22;6757;52.258;12.840;2023-08-20T05:27:08;21.50;99.90
7461;DHT22;6757;52.258;12.840;2023-08-20T05:29:37;21.50;99.90
7461;DHT22;6757;52.258;12.840;2023-08-20T05:32:05;21.50;99.90
7461;DHT22;6757;52.258;12.840;2023-08-20T05:34:32;21.50;99.90
7461;DHT22;6757;52.258;12.840;2023-08-20T05:36:59;21.50;99.90
7461;DHT22;6757;52.258;12.840;2023-08-20T05:39:26;21.50;99.90
7461;DHT22;6757;52.258;12.840;2023-08-20T05:41:53;21.50;99.90
7461;DHT22;6757;52.258;12.840;2023-08-20T05:44:21;21.60;99.90
7461;DHT22;6757;52.258;12.840;2023-08-20T05:46:49;21.60;99.90
7461;DHT22;6757;52.258;12.840;2023-08-20T05:49:16;21.60;99.90
7461;DHT22;6757;52.258;12.840;2023-08-20T05:51:43;21.60;99.90
7461;DHT22;6757;52.258;12.840;2023-08-20T05:54:10;21.70;99.90
7461;DHT22;6757;52.258;12.840;2023-08-20T05:56:37;21.70;99.90
7461;DHT22;6757;52.258;12.840;2023-08-20T05:59:04;21.70;99.90
7461;DHT22;6757;52.258;12.840;2023-08-20T06:01:31;21.80;99.90
7461;DHT22;6757;52.258;12.840;2023-08-20T06:03:59;21.70;99.90
7461;DHT22;6757;52.258;12.840;2023-08-20T06:06:27;21.80;99.90
7461;DHT22;6757;52.258;12.840;2023-08-20T06:08:54;21.70;99.90
7461;DHT22;6757;52.258;12.840;2023-08-20T06:11:21;21.70;99.90
7461;DHT22;6757;52.258;12.840;2023-08-20T06:13:48;21.70;99.90
7461;DHT22;6757;52.258;12.840;2023-08-20T06:16:15;21.60;99.90
7461;DHT22;6757;52.258;12.840;2023-08-20T06:18:42;21.60;99.90
7461;DHT22;6757;52.258;12.840;2023-08-20T06:21:10;21.60;99.90
7461;DHT22;6757;52.258;12.840;2023-08-20T06:23:38;21.60;99.90
7461;DHT22;6757;52.258;12.840;2023-08-20T06:26:05;21.70;99.90
7461;DHT22;6757;52.258;12.840;2023-08-20T06:28:32;21.80;99.90
7461;DHT22;6757;52.258;12.840;2023-08-20T06:30:59;21.80;99.90
7461;DHT22;6757;52.258;12.840;2023-08-20T06:33:26;21.80;99.90
7461;DHT22;6757;52.258;12.840;2023-08-20T06:35:53;21.90;99.90
7461;DHT22;6757;52.258;12.840;2023-08-20T06:38:21;21.90;99.90
7461;DHT22;6757;52.258;12.840;2023-08-20T06:40:48;21.80;99.90
7461;DHT22;6757;52.258;12.840;2023-08-20T06:43:15;21.80;99.90
7461;DHT22;6757;52.258;12.840;2023-08-20T06:45:41;21.80;99.90
7461;DHT22;6757;52.258;12.840;2023-08-20T06:48:08;21.80;99.90
7461;DHT22;6757;52.258;12.840;2023-08-20T06:50:35;21.80;99.90
7461;DHT22;6757;52.258;12.840;2023-08-20T06:53:02;21.80;99.90
7461;DHT22;6757;52.258;12.840;2023-08-20T06:55:32;21.80;99.90
7461;DHT22;6757;52.258;12.840;2023-08-20T06:58:00;21.80;99.90
7461;DHT22;6757;52.258;12.840;2023-08-20T07:00:27;21.80;99.90
7461;DHT22;6757;52.258;12.840;2023-08-20T07:02:54;21.90;99.90
7461;DHT22;6757;52.258;12.840;2023-08-20T07:05:21;21.90;99.90
7461;DHT22;6757;52.258;12.840;2023-08-20T07:07:48;21.90;99.90
7461;DHT22;6757;52.258;12.840;2023-08-20T07:10:15;22.00;99.90
7461;DHT22;6757;52.258;12.840;2023-08-20T07:12:43;22.40;99.90
7461;DHT22;6757;52.258;12.840;2023-08-20T07:15:11;22.20;99.90
7461;DHT22;6757;52.258;12.840;2023-08-20T07:17:38;22.20;99.90
7461;DHT22;6757;52.258;12.840;2023-08-20T07:20:06;22.40;99.90
7461;DHT22;6757;52.258;12.840;2023-08-20T07:22:33;22.40;99.90
7461;DHT22;6757;52.258;12.840;2023-08-20T07:25:00;22.50;99.90
7461;DHT22;6757;52.258;12.840;2023-08-20T07:27:27;22.50;99.90
7461;DHT22;6757;52.258;12.840;2023-08-20T07:29:56;22.50;99.90
7461;DHT22;6757;52.258;12.840;2023-08-20T07:32:23;22.60;99.90
7461;DHT22;6757;52.258;12.840;2023-08-20T07:34:49;22.60;99.90
7461;DHT22;6757;52.258;12.840;2023-08-20T07:37:16;22.60;99.90
7461;DHT22;6757;52.258;12.840;2023-08-20T07:39:43;22.70;99.90
7461;DHT22;6757;52.258;12.840;2023-08-20T07:42:10;22.70;99.90
7461;DHT22;6757;52.258;12.840;2023-08-20T07:44:37;22.80;99.90
7461;DHT22;6757;52.258;12.840;2023-08-20T07:47:06;22.80;99.90
7461;DHT22;6757;52.258;12.840;2023-08-20T07:49:33;22.80;99.90
7461;DHT22;6757;52.258;12.840;2023-08-20T07:52:00;22.80;99.90
7461;DHT22;6757;52.258;12.840;2023-08-20T07:54:27;22.80;99.90
7461;DHT22;6757;52.258;12.840;2023-08-20T07:56:54;22.80;99.90
7461;DHT22;6757;52.258;12.840;2023-08-20T07:59:21;22.90;99.90
7461;DHT22;6757;52.258;12.840;2023-08-20T08:01:48;22.90;99.90
7461;DHT22;6757;52.258;12.840;2023-08-20T08:04:16;23.00;99.90
7461;DHT22;6757;52.258;12.840;2023-08-20T08:06:43;23.00;99.90
7461;DHT22;6757;52.258;12.840;2023-08-20T08:09:21;23.10;99.90
7461;DHT22;6757;52.258;12.840;2023-08-20T08:11:51;23.20;99.90
7461;DHT22;6757;52.258;12.840;2023-08-20T08:14:18;23.20;99.90
7461;DHT22;6757;52.258;12.840;2023-08-20T08:16:46;23.20;99.90
7461;DHT22;6757;52.258;12.840;2023-08-20T08:19:13;23.20;99.90
7461;DHT22;6757;52.258;12.840;2023-08-20T08:21:43;23.50;99.90
7461;DHT22;6757;52.258;12.840;2023-08-20T08:24:10;23.30;99.90
7461;DHT22;6757;52.258;12.840;2023-08-20T08:26:38;23.40;99.90
7461;DHT22;6757;52.258;12.840;2023-08-20T08:29:06;23.40;99.90
7461;DHT22;6757;52.258;12.840;2023-08-20T08:31:34;23.50;99.90
7461;DHT22;6757;52.258;12.840;2023-08-20T08:34:01;23.50;99.90
7461;DHT22;6757;52.258;12.840;2023-08-20T08:36:29;23.60;99.90
7461;DHT22;6757;52.258;12.840;2023-08-20T08:38:57;23.70;99.90
7461;DHT22;6757;52.258;12.840;2023-08-20T08:41:25;23.80;99.90
7461;DHT22;6757;52.258;12.840;2023-08-20T08:43:53;23.90;99.90
7461;DHT22;6757;52.258;12.840;2023-08-20T08:46:22;24.00;99.90
7461;DHT22;6757;52.258;12.840;2023-08-20T08:48:51;24.00;99.90
7461;DHT22;6757;52.258;12.840;2023-08-20T08:51:19;24.10;99.90
7461;DHT22;6757;52.258;12.840;2023-08-20T08:53:46;24.20;99.90
7461;DHT22;6757;52.258;12.840;2023-08-20T08:56:14;24.20;99.90
7461;DHT22;6757;52.258;12.840;2023-08-20T08:58:41;24.30;99.90
7461;DHT22;6757;52.258;12.840;2023-08-20T09:01:08;24.30;99.90
7461;DHT22;6757;52.258;12.840;2023-08-20T09:03:35;24.40;99.90
7461;DHT22;6757;52.258;12.840;2023-08-20T09:06:08;24.40;99.90
7461;DHT22;6757;52.258;12.840;2023-08-20T09:08:36;24.40;99.90
7461;DHT22;6757;52.258;12.840;2023-08-20T09:11:03;24.50;99.90
7461;DHT22;6757;52.258;12.840;2023-08-20T09:13:36;24.60;99.90
7461;DHT22;6757;52.258;12.840;2023-08-20T09:16:04;24.60;99.90
7461;DHT22;6757;52.258;12.840;2023-08-20T09:18:32;24.70;99.90
7461;DHT22;6757;52.258;12.840;2023-08-20T09:20:59;24.80;99.90
7461;DHT22;6757;52.258;12.840;2023-08-20T09:23:28;24.90;99.90
7461;DHT22;6757;52.258;12.840;2023-08-20T09:25:56;25.00;99.90
7461;DHT22;6757;52.258;12.840;2023-08-20T09:28:23;25.20;99.90
7461;DHT22;6757;52.258;12.840;2023-08-20T09:30:59;25.30;99.90
7461;DHT22;6757;52.258;12.840;2023-08-20T09:33:27;25.30;99.90
7461;DHT22;6757;52.258;12.840;2023-08-20T09:35:55;25.40;99.90
7461;DHT22;6757;52.258;12.840;2023-08-20T09:38:25;25.50;99.90
7461;DHT22;6757;52.258;12.840;2023-08-20T09:40:53;25.60;99.90
7461;DHT22;6757;52.258;12.840;2023-08-20T09:43:23;25.50;99.90
7461;DHT22;6757;52.258;12.840;2023-08-20T09:45:55;25.50;99.90
7461;DHT22;6757;52.258;12.840;2023-08-20T09:48:24;25.60;99.90
7461;DHT22;6757;52.258;12.840;2023-08-20T09:50:58;25.60;99.90
7461;DHT22;6757;52.258;12.840;2023-08-20T09:53:30;25.70;99.90
7461;DHT22;6757;52.258;12.840;2023-08-20T09:56:06;25.70;99.90
7461;DHT22;6757;52.258;12.840;2023-08-20T09:58:37;25.80;99.90
7461;DHT22;6757;52.258;12.840;2023-08-20T10:01:06;25.80;99.90
7461;DHT22;6757;52.258;12.840;2023-08-20T10:03:36;25.90;99.90
7461;DHT22;6757;52.258;12.840;2023-08-20T10:06:05;25.90;99.90
7461;DHT22;6757;52.258;12.840;2023-08-20T10:08:33;26.00;99.90
7461;DHT22;6757;52.258;12.840;2023-08-20T10:11:00;26.10;99.90
7461;DHT22;6757;52.258;12.840;2023-08-20T10:13:28;26.10;99.90
7461;DHT22;6757;52.258;12.840;2023-08-20T10:15:55;26.20;99.90
7461;DHT22;6757;52.258;12.840;2023-08-20T10:18:22;26.30;99.90
7461;DHT22;6757;52.258;12.840;2023-08-20T10:20:51;26.30;99.90
7461;DHT22;6757;52.258;12.840;2023-08-20T10:23:20;26.30;99.90
7461;DHT22;6757;52.258;12.840;2023-08-20T10:25:48;26.40;99.90
7461;DHT22;6757;52.258;12.840;2023-08-20T10:28:20;26.50;99.90
7461;DHT22;6757;52.258;12.840;2023-08-20T10:31:04;26.50;99.90
7461;DHT22;6757;52.258;12.840;2023-08-20T10:33:34;26.50;99.90
7461;DHT22;6757;52.258;12.840;2023-08-20T10:36:12;26.60;99.90
7461;DHT22;6757;52.258;12.840;2023-08-20T10:38:41;26.60;99.90
7461;DHT22;6757;52.258;12.840;2023-08-20T10:41:08;26.70;99.90
7461;DHT22;6757;52.258;12.840;2023-08-20T10:43:37;26.70;99.90
7461;DHT22;6757;52.258;12.840;2023-08-20T10:46:14;26.70;99.90
7461;DHT22;6757;52.258;12.840;2023-08-20T10:48:44;26.90;99.90
7461;DHT22;6757;52.258;12.840;2023-08-20T10:51:16;26.80;99.90
7461;DHT22;6757;52.258;12.840;2023-08-20T10:53:48;26.90;99.90
7461;DHT22;6757;52.258;12.840;2023-08-20T10:56:41;27.00;99.90
7461;DHT22;6757;52.258;12.840;2023-08-20T10:59:13;27.10;99.90
7461;DHT22;6757;52.258;12.840;2023-08-20T11:01:43;27.10;99.90
7461;DHT22;6757;52.258;12.840;2023-08-20T11:04:10;27.10;99.90
7461;DHT22;6757;52.258;12.840;2023-08-20T11:06:39;27.20;99.90
7461;DHT22;6757;52.258;12.840;2023-08-20T11:09:06;27.20;99.90
7461;DHT22;6757;52.258;12.840;2023-08-20T11:11:33;27.30;99.90
7461;DHT22;6757;52.258;12.840;2023-08-20T11:14:05;27.30;99.90
7461;DHT22;6757;52.258;12.840;2023-08-20T11:16:34;27.40;99.90
7461;DHT22;6757;52.258;12.840;2023-08-20T11:19:01;27.50;99.90
7461;DHT22;6757;52.258;12.840;2023-08-20T11:21:31;27.50;99.90
7461;DHT22;6757;52.258;12.840;2023-08-20T11:24:01;27.50;99.90
7461;DHT22;6757;52.258;12.840;2023-08-20T11:26:28;27.60;99.90
7461;DHT22;6757;52.258;12.840;2023-08-20T11:28:55;27.60;99.90
7461;DHT22;6757;52.258;12.840;2023-08-20T11:31:22;27.70;99.90
7461;DHT22;6757;52.258;12.840;2023-08-20T11:33:49;27.60;99.90
7461;DHT22;6757;52.258;12.840;2023-08-20T11:36:16;27.70;99.90
7461;DHT22;6757;52.258;12.840;2023-08-20T11:38:49;27.80;99.90
7461;DHT22;6757;52.258;12.840;2023-08-20T11:41:19;27.80;99.90
7461;DHT22;6757;52.258;12.840;2023-08-20T11:43:46;27.80;99.90
7461;DHT22;6757;52.258;12.840;2023-08-20T11:46:14;28.00;99.90
7461;DHT22;6757;52.258;12.840;2023-08-20T11:48:59;28.10;99.90
7461;DHT22;6757;52.258;12.840;2023-08-20T11:51:27;28.20;99.90
7461;DHT22;6757;52.258;12.840;2023-08-20T11:53:54;28.30;99.90
7461;DHT22;6757;52.258;12.840;2023-08-20T11:56:23;28.40;99.90
7461;DHT22;6757;52.258;12.840;2023-08-20T11:58:50;28.50;99.90
7461;DHT22;6757;52.258;12.840;2023-08-20T12:01:17;28.60;99.90
7461;DHT22;6757;52.258;12.840;2023-08-20T12:03:45;28.70;99.90
7461;DHT22;6757;52.258;12.840;2023-08-20T12:06:19;28.90;99.90
7461;DHT22;6757;52.258;12.840;2023-08-20T12:08:48;29.00;99.90
7461;DHT22;6757;52.258;12.840;2023-08-20T12:11:15;29.20;99.90
7461;DHT22;6757;52.258;12.840;2023-08-20T12:13:43;29.40;99.90
7461;DHT22;6757;52.258;12.840;2023-08-20T12:16:10;29.60;99.90
7461;DHT22;6757;52.258;12.840;2023-08-20T12:18:37;29.80;99.00
7461;DHT22;6757;52.258;12.840;2023-08-20T12:21:04;30.10;98.30
7461;DHT22;6757;52.258;12.840;2023-08-20T12:23:31;30.50;97.50
7461;DHT22;6757;52.258;12.840;2023-08-20T12:25:58;31.00;96.40
7461;DHT22;6757;52.258;12.840;2023-08-20T12:28:25;31.60;95.50
7461;DHT22;6757;52.258;12.840;2023-08-20T12:30:53;32.20;94.30
7461;DHT22;6757;52.258;12.840;2023-08-20T12:33:20;32.40;92.80
7461;DHT22;6757;52.258;12.840;2023-08-20T12:35:47;32.70;91.80
7461;DHT22;6757;52.258;12.840;2023-08-20T12:38:15;32.80;90.70
7461;DHT22;6757;52.258;12.840;2023-08-20T12:40:42;33.00;90.00
7461;DHT22;6757;52.258;12.840;2023-08-20T12:43:09;33.10;88.90
7461;DHT22;6757;52.258;12.840;2023-08-20T12:45:36;33.20;87.70
7461;DHT22;6757;52.258;12.840;2023-08-20T12:48:05;33.20;87.00
7461;DHT22;6757;52.258;12.840;2023-08-20T12:50:35;33.10;86.60
7461;DHT22;6757;52.258;12.840;2023-08-20T12:53:02;32.90;86.10
7461;DHT22;6757;52.258;12.840;2023-08-20T12:55:29;32.80;85.60
7461;DHT22;6757;52.258;12.840;2023-08-20T12:57:57;32.50;84.60
7461;DHT22;6757;52.258;12.840;2023-08-20T13:00:26;32.20;84.20
7461;DHT22;6757;52.258;12.840;2023-08-20T13:02:54;32.00;84.50
7461;DHT22;6757;52.258;12.840;2023-08-20T13:05:24;31.80;84.60
7461;DHT22;6757;52.258;12.840;2023-08-20T13:07:52;31.70;84.80
7461;DHT22;6757;52.258;12.840;2023-08-20T13:10:20;31.60;85.10
7461;DHT22;6757;52.258;12.840;2023-08-20T13:12:51;31.60;84.90
7461;DHT22;6757;52.258;12.840;2023-08-20T13:15:20;31.60;84.50
7461;DHT22;6757;52.258;12.840;2023-08-20T13:17:49;31.70;84.50
7461;DHT22;6757;52.258;12.840;2023-08-20T13:20:17;31.90;84.60
7461;DHT22;6757;52.258;12.840;2023-08-20T13:22:48;32.10;84.70
7461;DHT22;6757;52.258;12.840;2023-08-20T13:25:15;32.40;83.80
7461;DHT22;6757;52.258;12.840;2023-08-20T13:27:42;32.80;82.20
7461;DHT22;6757;52.258;12.840;2023-08-20T13:30:10;33.20;80.40
7461;DHT22;6757;52.258;12.840;2023-08-20T13:32:37;33.60;79.20
7461;DHT22;6757;52.258;12.840;2023-08-20T13:35:05;34.30;78.40
7461;DHT22;6757;52.258;12.840;2023-08-20T13:37:33;34.80;77.00
7461;DHT22;6757;52.258;12.840;2023-08-20T13:40:02;35.40;75.40
7461;DHT22;6757;52.258;12.840;2023-08-20T13:42:30;36.00;73.50
7461;DHT22;6757;52.258;12.840;2023-08-20T13:44:57;36.50;72.10
7461;DHT22;6757;52.258;12.840;2023-08-20T13:47:24;36.90;70.30
7461;DHT22;6757;52.258;12.840;2023-08-20T13:49:51;37.20;68.80
7461;DHT22;6757;52.258;12.840;2023-08-20T13:52:18;37.60;67.60
7461;DHT22;6757;52.258;12.840;2023-08-20T13:54:46;38.00;66.40
7461;DHT22;6757;52.258;12.840;2023-08-20T13:57:14;38.50;65.00
7461;DHT22;6757;52.258;12.840;2023-08-20T13:59:41;38.60;63.30
7461;DHT22;6757;52.258;12.840;2023-08-20T14:02:08;38.80;61.80
7461;DHT22;6757;52.258;12.840;2023-08-20T14:04:35;39.00;61.20
7461;DHT22;6757;52.258;12.840;2023-08-20T14:07:02;39.30;60.50
7461;DHT22;6757;52.258;12.840;2023-08-20T14:09:29;39.50;59.40
7461;DHT22;6757;52.258;12.840;2023-08-20T14:11:56;39.50;57.40
7461;DHT22;6757;52.258;12.840;2023-08-20T14:14:24;39.40;56.90
7461;DHT22;6757;52.258;12.840;2023-08-20T14:16:51;39.20;56.50
7461;DHT22;6757;52.258;12.840;2023-08-20T14:19:18;39.00;56.60
7461;DHT22;6757;52.258;12.840;2023-08-20T14:21:45;39.00;56.50
7461;DHT22;6757;52.258;12.840;2023-08-20T14:24:12;38.80;55.90
7461;DHT22;6757;52.258;12.840;2023-08-20T14:26:39;38.80;56.10
7461;DHT22;6757;52.258;12.840;2023-08-20T14:29:06;38.90;56.10
7461;DHT22;6757;52.258;12.840;2023-08-20T14:31:34;39.00;55.70
7461;DHT22;6757;52.258;12.840;2023-08-20T14:34:01;39.00;55.60
7461;DHT22;6757;52.258;12.840;2023-08-20T14:36:28;39.00;55.50
7461;DHT22;6757;52.258;12.840;2023-08-20T14:38:55;39.00;55.50
7461;DHT22;6757;52.258;12.840;2023-08-20T14:41:22;38.60;55.40
7461;DHT22;6757;52.258;12.840;2023-08-20T14:43:49;38.40;55.60
7461;DHT22;6757;52.258;12.840;2023-08-20T14:46:15;38.40;55.90
7461;DHT22;6757;52.258;12.840;2023-08-20T14:48:44;38.40;56.00
7461;DHT22;6757;52.258;12.840;2023-08-20T14:51:11;38.30;56.00
7461;DHT22;6757;52.258;12.840;2023-08-20T14:53:38;38.40;56.10
7461;DHT22;6757;52.258;12.840;2023-08-20T14:56:05;38.50;56.00
7461;DHT22;6757;52.258;12.840;2023-08-20T14:58:32;38.50;55.70
7461;DHT22;6757;52.258;12.840;2023-08-20T15:00:59;38.80;55.80
7461;DHT22;6757;52.258;12.840;2023-08-20T15:03:26;38.80;55.60
7461;DHT22;6757;52.258;12.840;2023-08-20T15:05:54;38.90;55.00
7461;DHT22;6757;52.258;12.840;2023-08-20T15:08:21;39.00;54.30
7461;DHT22;6757;52.258;12.840;2023-08-20T15:10:56;38.90;53.70
7461;DHT22;6757;52.258;12.840;2023-08-20T15:13:24;38.60;53.30
7461;DHT22;6757;52.258;12.840;2023-08-20T15:15:51;38.40;53.60
7461;DHT22;6757;52.258;12.840;2023-08-20T15:18:19;38.10;53.80
7461;DHT22;6757;52.258;12.840;2023-08-20T15:20:54;37.90;54.20
7461;DHT22;6757;52.258;12.840;2023-08-20T15:23:22;37.90;54.60
7461;DHT22;6757;52.258;12.840;2023-08-20T15:25:51;37.80;54.80
7461;DHT22;6757;52.258;12.840;2023-08-20T15:28:18;37.90;55.00
7461;DHT22;6757;52.258;12.840;2023-08-20T15:30:45;38.10;55.30
7461;DHT22;6757;52.258;12.840;2023-08-20T15:33:12;38.00;55.20
7461;DHT22;6757;52.258;12.840;2023-08-20T15:35:40;38.10;55.30
7461;DHT22;6757;52.258;12.840;2023-08-20T15:38:09;38.10;55.30
7461;DHT22;6757;52.258;12.840;2023-08-20T15:40:36;38.10;55.30
7461;DHT22;6757;52.258;12.840;2023-08-20T15:43:03;38.00;55.30
7461;DHT22;6757;52.258;12.840;2023-08-20T15:45:31;38.00;55.30
7461;DHT22;6757;52.258;12.840;2023-08-20T15:47:58;37.80;55.30
7461;DHT22;6757;52.258;12.840;2023-08-20T15:50:25;37.70;55.40
7461;DHT22;6757;52.258;12.840;2023-08-20T15:52:52;37.50;55.60